createdAt,value
2019-02-20T00:01:34.000Z,26.8
2019-02-20T00:02:49.000Z,26.8
2019-02-20T00:03:49.000Z,26.8
2019-02-20T00:05:49.000Z,26.9
2019-02-20T00:06:49.000Z,26.9
2019-02-20T00:08:34.000Z,27
2019-02-20T00:09:49.000Z,26.9
2019-02-20T00:10:49.000Z,27
2019-02-20T00:12:49.000Z,27
2019-02-20T00:13:49.000Z,27
2019-02-20T00:15:49.000Z,27
2019-02-20T00:17:49.000Z,26.9
2019-02-20T00:18:49.000Z,26.9
2019-02-20T00:20:49.000Z,26.9
2019-02-20T00:21:49.000Z,26.9
2019-02-20T00:23:49.000Z,26.9
2019-02-20T00:24:49.000Z,26.9
2019-02-20T00:26:49.000Z,26.9
2019-02-20T00:27:50.000Z,26.9
2019-02-20T00:29:50.000Z,26.9
2019-02-20T00:31:50.000Z,26.9
2019-02-20T00:32:50.000Z,26.9
2019-02-20T00:34:50.000Z,27
2019-02-20T00:35:50.000Z,27
2019-02-20T00:37:50.000Z,27
2019-02-20T00:39:35.000Z,26.9
2019-02-20T00:40:50.000Z,26.8
2019-02-20T00:42:50.000Z,26.8
2019-02-20T00:43:50.000Z,26.8
2019-02-20T00:44:50.000Z,26.8
2019-02-20T00:46:50.000Z,26.9
2019-02-20T00:48:50.000Z,26.9
2019-02-20T00:50:50.000Z,26.9
2019-02-20T00:52:50.000Z,26.8
2019-02-20T00:53:50.000Z,26.8
2019-02-20T00:55:50.000Z,26.8
2019-02-20T00:56:50.000Z,26.9
2019-02-20T00:58:50.000Z,26.8
2019-02-20T01:00:50.000Z,26.8
2019-02-20T01:02:50.000Z,26.8
2019-02-20T01:04:50.000Z,26.8
2019-02-20T01:05:50.000Z,26.9
2019-02-20T01:06:50.000Z,26.9
2019-02-20T01:07:50.000Z,26.9
2019-02-20T01:09:50.000Z,27
2019-02-20T01:10:50.000Z,27
2019-02-20T01:12:50.000Z,27
2019-02-20T01:14:50.000Z,26.9
2019-02-20T01:16:50.000Z,26.8
2019-02-20T01:17:50.000Z,26.8
2019-02-20T01:19:50.000Z,26.8
2019-02-20T01:20:50.000Z,26.8
2019-02-20T01:22:50.000Z,26.8
2019-02-20T01:24:50.000Z,26.7
2019-02-20T01:26:50.000Z,26.6
2019-02-20T01:28:50.000Z,26.5
2019-02-20T01:29:50.000Z,26.5
2019-02-20T01:30:49.000Z,26.6
2019-02-20T01:32:49.000Z,26.7
2019-02-20T01:34:49.000Z,26.8
2019-02-20T01:35:49.000Z,26.8
2019-02-20T01:37:49.000Z,26.9
2019-02-20T01:39:49.000Z,26.8
2019-02-20T01:41:34.000Z,26.8
2019-02-20T01:42:49.000Z,26.7
2019-02-20T01:44:49.000Z,26.7
2019-02-20T01:46:49.000Z,26.7
2019-02-20T01:48:49.000Z,26.8
2019-02-20T01:50:49.000Z,26.7
2019-02-20T01:52:34.000Z,26.8
2019-02-20T01:53:49.000Z,26.7
2019-02-20T01:55:49.000Z,26.8
2019-02-20T01:56:49.000Z,26.8
2019-02-20T01:58:49.000Z,26.8
2019-02-20T02:00:49.000Z,26.8
2019-02-20T02:02:49.000Z,26.8
2019-02-20T02:04:49.000Z,26.8
2019-02-20T02:06:49.000Z,26.7
2019-02-20T02:08:49.000Z,26.7
2019-02-20T02:10:34.000Z,26.7
2019-02-20T02:11:49.000Z,26.7
2019-02-20T02:12:49.000Z,26.7
2019-02-20T02:13:49.000Z,26.7
2019-02-20T02:14:49.000Z,26.8
2019-02-20T02:16:34.000Z,26.9
2019-02-20T02:17:49.000Z,26.8
2019-02-20T02:18:49.000Z,26.8
2019-02-20T02:20:49.000Z,26.9
2019-02-20T02:22:49.000Z,26.9
2019-02-20T02:23:49.000Z,26.9
2019-02-20T02:25:49.000Z,26.9
2019-02-20T02:27:49.000Z,26.8
2019-02-20T02:28:49.000Z,26.7
2019-02-20T02:29:49.000Z,26.7
2019-02-20T02:31:49.000Z,26.8
2019-02-20T02:32:49.000Z,26.9
2019-02-20T02:34:50.000Z,26.9
2019-02-20T02:35:50.000Z,26.9
2019-02-20T02:37:50.000Z,27
2019-02-20T02:39:50.000Z,26.9
2019-02-20T02:41:50.000Z,26.9
2019-02-20T02:42:50.000Z,26.9
2019-02-20T02:44:50.000Z,26.8
2019-02-20T02:45:50.000Z,26.8
2019-02-20T02:47:50.000Z,26.9
2019-02-20T02:48:50.000Z,26.9
2019-02-20T02:50:50.000Z,26.9
2019-02-20T02:51:50.000Z,26.9
2019-02-20T02:53:50.000Z,26.9
2019-02-20T02:54:50.000Z,26.9
2019-02-20T02:55:50.000Z,26.9
2019-02-20T02:57:35.000Z,26.9
2019-02-20T02:58:50.000Z,26.9
2019-02-20T02:59:50.000Z,26.9
2019-02-20T03:00:50.000Z,26.9
2019-02-20T03:02:50.000Z,26.9
2019-02-20T03:03:50.000Z,26.9
2019-02-20T03:05:50.000Z,26.9
2019-02-20T03:06:50.000Z,26.9
2019-02-20T03:08:50.000Z,26.9
2019-02-20T03:09:50.000Z,26.9
2019-02-20T03:10:50.000Z,27
2019-02-20T03:12:50.000Z,27
2019-02-20T03:14:50.000Z,27
2019-02-20T03:15:50.000Z,27
2019-02-20T03:16:50.000Z,27
2019-02-20T03:18:50.000Z,27
2019-02-20T03:20:50.000Z,26.9
2019-02-20T03:21:50.000Z,26.9
2019-02-20T03:23:35.000Z,26.9
2019-02-20T03:24:50.000Z,26.8
2019-02-20T03:25:50.000Z,26.7
2019-02-20T03:27:50.000Z,26.8
2019-02-20T03:29:50.000Z,26.7
2019-02-20T03:31:50.000Z,26.7
2019-02-20T03:32:50.000Z,26.8
2019-02-20T03:34:35.000Z,26.8
2019-02-20T03:35:50.000Z,26.8
2019-02-20T03:37:50.000Z,26.8
2019-02-20T03:39:49.000Z,26.8
2019-02-20T03:40:49.000Z,26.8
2019-02-20T03:42:49.000Z,26.8
2019-02-20T03:44:49.000Z,26.7
2019-02-20T03:46:49.000Z,26.7
2019-02-20T03:48:49.000Z,26.7
2019-02-20T03:50:49.000Z,26.6
2019-02-20T03:52:49.000Z,26.7
2019-02-20T03:53:49.000Z,26.7
2019-02-20T03:55:34.000Z,26.7
2019-02-20T03:56:49.000Z,26.6
2019-02-20T03:58:49.000Z,26.7
2019-02-20T04:00:49.000Z,26.7
2019-02-20T04:02:49.000Z,26.7
2019-02-20T04:04:49.000Z,26.7
2019-02-20T04:06:49.000Z,26.7
2019-02-20T04:08:49.000Z,26.7
2019-02-20T04:10:49.000Z,26.6
2019-02-20T04:12:49.000Z,26.6
2019-02-20T04:14:34.000Z,26.6
2019-02-20T04:15:49.000Z,26.6
2019-02-20T04:17:49.000Z,26.6
2019-02-20T04:19:49.000Z,26.6
2019-02-20T04:20:49.000Z,26.6
2019-02-20T04:22:49.000Z,26.6
2019-02-20T04:24:49.000Z,26.5
2019-02-20T04:26:49.000Z,26.5
2019-02-20T04:27:49.000Z,26.6
2019-02-20T04:29:34.000Z,26.6
2019-02-20T04:30:49.000Z,26.6
2019-02-20T04:31:49.000Z,26.7
2019-02-20T04:33:49.000Z,26.8
2019-02-20T04:35:49.000Z,26.8
2019-02-20T04:36:49.000Z,26.8
2019-02-20T04:37:49.000Z,26.8
2019-02-20T04:38:49.000Z,26.9
2019-02-20T04:40:34.000Z,27
2019-02-20T04:41:50.000Z,26.9
2019-02-20T04:43:35.000Z,26.9
2019-02-20T04:44:50.000Z,26.9
2019-02-20T04:45:50.000Z,26.9
2019-02-20T04:47:50.000Z,26.9
2019-02-20T04:49:50.000Z,26.8
2019-02-20T04:50:50.000Z,26.8
2019-02-20T04:51:50.000Z,26.8
2019-02-20T04:53:50.000Z,26.8
2019-02-20T04:55:50.000Z,26.7
2019-02-20T04:57:50.000Z,26.6
2019-02-20T04:58:50.000Z,26.6
2019-02-20T04:59:50.000Z,26.7
2019-02-20T05:00:50.000Z,26.8
2019-02-20T05:02:50.000Z,26.8
2019-02-20T05:04:35.000Z,26.8
2019-02-20T05:05:50.000Z,26.8
2019-02-20T05:06:50.000Z,26.8
2019-02-20T05:07:50.000Z,26.8
2019-02-20T05:09:50.000Z,26.8
2019-02-20T05:11:50.000Z,26.8
2019-02-20T05:12:50.000Z,26.8
2019-02-20T05:14:50.000Z,26.8
2019-02-20T05:15:50.000Z,26.8
2019-02-20T05:17:50.000Z,26.9
2019-02-20T05:18:50.000Z,26.9
2019-02-20T05:20:50.000Z,26.9
2019-02-20T05:22:50.000Z,26.9
2019-02-20T05:24:50.000Z,26.8
2019-02-20T05:25:50.000Z,26.8
2019-02-20T05:26:50.000Z,26.9
2019-02-20T05:28:50.000Z,26.9
2019-02-20T05:29:50.000Z,26.9
2019-02-20T05:30:50.000Z,26.9
2019-02-20T05:31:50.000Z,26.9
2019-02-20T05:33:50.000Z,27
2019-02-20T05:35:50.000Z,26.9
2019-02-20T05:37:35.000Z,26.9
2019-02-20T05:38:50.000Z,26.8
2019-02-20T05:39:50.000Z,26.8
2019-02-20T05:40:50.000Z,26.9
2019-02-20T05:42:50.000Z,26.9
2019-02-20T05:43:50.000Z,26.9
2019-02-20T05:45:50.000Z,26.9
2019-02-20T05:47:50.000Z,26.8
2019-02-20T05:49:50.000Z,26.7
2019-02-20T05:51:50.000Z,26.7
2019-02-20T05:52:50.000Z,26.7
2019-02-20T05:54:35.000Z,26.7
2019-02-20T05:55:50.000Z,26.6
2019-02-20T05:57:35.000Z,26.6
2019-02-20T05:58:50.000Z,26.4
2019-02-20T05:59:50.000Z,26.4
2019-02-20T06:00:50.000Z,26.5
2019-02-20T06:01:50.000Z,26.5
2019-02-20T06:03:50.000Z,26.6
2019-02-20T06:05:50.000Z,26.6
2019-02-20T06:06:50.000Z,26.7
2019-02-20T06:08:35.000Z,26.7
2019-02-20T06:09:50.000Z,26.7
2019-02-20T06:10:50.000Z,26.8
2019-02-20T06:12:50.000Z,26.7
2019-02-20T06:14:50.000Z,26.7
2019-02-20T06:16:50.000Z,26.7
2019-02-20T06:18:50.000Z,26.6
2019-02-20T06:19:50.000Z,26.6
2019-02-20T06:20:50.000Z,26.6
2019-02-20T06:22:35.000Z,26.7
2019-02-20T06:23:50.000Z,26.7
2019-02-20T06:25:50.000Z,26.7
2019-02-20T06:26:50.000Z,26.7
2019-02-20T06:28:50.000Z,26.7
2019-02-20T06:29:50.000Z,26.7
2019-02-20T06:30:50.000Z,26.8
2019-02-20T06:32:50.000Z,26.9
2019-02-20T06:34:50.000Z,26.8
2019-02-20T06:36:50.000Z,26.7
2019-02-20T06:37:50.000Z,26.8
2019-02-20T06:38:50.000Z,26.8
2019-02-20T06:40:50.000Z,26.9
2019-02-20T06:42:50.000Z,26.9
2019-02-20T06:43:50.000Z,26.8
2019-02-20T06:45:50.000Z,26.9
2019-02-20T06:47:50.000Z,26.8
2019-02-20T06:49:49.000Z,26.8
2019-02-20T06:50:50.000Z,26.8
2019-02-20T06:52:50.000Z,26.8
2019-02-20T06:54:49.000Z,26.8
2019-02-20T06:56:49.000Z,26.7
2019-02-20T06:58:49.000Z,26.6
2019-02-20T06:59:49.000Z,26.7
2019-02-20T07:00:49.000Z,26.7
2019-02-20T07:02:35.000Z,26.8
2019-02-20T07:03:49.000Z,26.8
2019-02-20T07:04:49.000Z,26.8
2019-02-20T07:06:49.000Z,26.9
2019-02-20T07:08:49.000Z,26.9
2019-02-20T07:09:49.000Z,26.9
2019-02-20T07:10:50.000Z,27
2019-02-20T07:12:49.000Z,27.1
2019-02-20T07:13:49.000Z,27.1
2019-02-20T07:15:49.000Z,27.1
2019-02-20T07:16:49.000Z,27.1
2019-02-20T07:17:49.000Z,27.1
2019-02-20T07:18:50.000Z,27.2
2019-02-20T07:20:49.000Z,27.3
2019-02-20T07:22:49.000Z,27.2
2019-02-20T07:24:49.000Z,27.2
2019-02-20T07:26:49.000Z,27.2
2019-02-20T07:27:50.000Z,27.2
2019-02-20T07:29:49.000Z,27.3
2019-02-20T07:31:49.000Z,27.3
2019-02-20T07:33:35.000Z,27.3
2019-02-20T07:34:49.000Z,27.3
2019-02-20T07:36:49.000Z,27.3
2019-02-20T07:38:49.000Z,27.3
2019-02-20T07:40:49.000Z,27.3
2019-02-20T07:42:49.000Z,27.4
2019-02-20T07:43:49.000Z,27.4
2019-02-20T07:45:49.000Z,27.5
2019-02-20T07:46:49.000Z,27.6
2019-02-20T07:48:49.000Z,27.6
2019-02-20T07:49:49.000Z,27.6
2019-02-20T07:50:49.000Z,27.7
2019-02-20T07:51:50.000Z,27.8
2019-02-20T07:53:50.000Z,27.9
2019-02-20T07:55:50.000Z,27.9
2019-02-20T07:56:50.000Z,27.9
2019-02-20T07:57:50.000Z,28
2019-02-20T07:58:50.000Z,28
2019-02-20T08:00:50.000Z,28.1
2019-02-20T08:02:50.000Z,28.1
2019-02-20T08:03:50.000Z,28.1
2019-02-20T08:05:50.000Z,28.1
2019-02-20T08:07:50.000Z,28
2019-02-20T08:09:50.000Z,27.9
2019-02-20T08:11:50.000Z,27.9
2019-02-20T08:12:50.000Z,28
2019-02-20T08:14:50.000Z,28
2019-02-20T08:15:50.000Z,28
2019-02-20T08:17:50.000Z,28.2
2019-02-20T08:19:50.000Z,28.2
2019-02-20T08:20:50.000Z,28.3
2019-02-20T08:22:50.000Z,28.3
2019-02-20T08:24:50.000Z,28.4
2019-02-20T08:25:50.000Z,28.4
2019-02-20T08:27:50.000Z,28.3
2019-02-20T08:28:50.000Z,28.4
2019-02-20T08:30:35.000Z,28.5
2019-02-20T08:31:50.000Z,28.5
2019-02-20T08:32:50.000Z,28.6
2019-02-20T08:34:50.000Z,28.7
2019-02-20T08:35:50.000Z,28.8
2019-02-20T08:36:50.000Z,28.9
2019-02-20T08:38:50.000Z,29
2019-02-20T08:39:50.000Z,29
2019-02-20T08:41:35.000Z,29.2
2019-02-20T08:42:50.000Z,29.2
2019-02-20T08:44:50.000Z,29.2
2019-02-20T08:46:50.000Z,29.3
2019-02-20T08:48:35.000Z,29.3
2019-02-20T08:49:50.000Z,29.3
2019-02-20T08:51:50.000Z,29.4
2019-02-20T08:52:50.000Z,29.4
2019-02-20T08:54:50.000Z,29.5
2019-02-20T08:56:50.000Z,29.4
2019-02-20T08:57:50.000Z,29.4
2019-02-20T08:59:50.000Z,29.4
2019-02-20T09:01:50.000Z,29.2
2019-02-20T09:03:50.000Z,29.1
2019-02-20T09:05:50.000Z,29.1
2019-02-20T09:07:50.000Z,29.1
2019-02-20T09:09:50.000Z,29.1
2019-02-20T09:10:50.000Z,29.1
2019-02-20T09:11:50.000Z,29.2
2019-02-20T09:12:50.000Z,29.2
2019-02-20T09:14:50.000Z,29.4
2019-02-20T09:16:50.000Z,29.3
2019-02-20T09:18:50.000Z,29.3
2019-02-20T09:19:50.000Z,29.3
2019-02-20T09:20:50.000Z,29.4
2019-02-20T09:21:50.000Z,29.4
2019-02-20T09:22:50.000Z,29.5
2019-02-20T09:24:50.000Z,29.5
2019-02-20T09:26:35.000Z,29.5
2019-02-20T09:27:50.000Z,29.5
2019-02-20T09:29:50.000Z,29.5
2019-02-20T09:31:50.000Z,29.5
2019-02-20T09:32:50.000Z,29.5
2019-02-20T09:34:50.000Z,29.7
2019-02-20T09:36:50.000Z,29.7
2019-02-20T09:38:50.000Z,29.8
2019-02-20T09:39:50.000Z,29.8
2019-02-20T09:41:50.000Z,29.8
2019-02-20T09:42:50.000Z,29.8
2019-02-20T09:43:50.000Z,29.9
2019-02-20T09:44:50.000Z,30
2019-02-20T09:46:50.000Z,30
2019-02-20T09:48:50.000Z,30
2019-02-20T09:49:50.000Z,30
2019-02-20T09:50:50.000Z,30.1
2019-02-20T09:52:50.000Z,30.1
2019-02-20T09:54:50.000Z,29.9
2019-02-20T09:55:50.000Z,29.9
2019-02-20T09:57:35.000Z,29.9
2019-02-20T09:58:50.000Z,30
2019-02-20T10:00:49.000Z,30.1
2019-02-20T10:01:49.000Z,30.2
2019-02-20T10:03:49.000Z,30.3
2019-02-20T10:04:49.000Z,30.3
2019-02-20T10:06:49.000Z,30.3
2019-02-20T10:07:49.000Z,30.3
2019-02-20T10:09:34.000Z,30.4
2019-02-20T10:10:49.000Z,30.3
2019-02-20T10:12:49.000Z,30.1
2019-02-20T10:14:49.000Z,30
2019-02-20T10:15:49.000Z,30
2019-02-20T10:16:49.000Z,30.1
2019-02-20T10:18:49.000Z,30.1
2019-02-20T10:20:49.000Z,30.2
2019-02-20T10:21:49.000Z,30.2
2019-02-20T10:22:49.000Z,30.3
2019-02-20T10:24:49.000Z,30.4
2019-02-20T10:25:49.000Z,30.4
2019-02-20T10:27:49.000Z,30.3
2019-02-20T10:28:49.000Z,30.3
2019-02-20T10:30:49.000Z,30.4
2019-02-20T10:32:49.000Z,30.4
2019-02-20T10:33:49.000Z,30.5
2019-02-20T10:35:49.000Z,30.6
2019-02-20T10:37:49.000Z,30.6
2019-02-20T10:39:49.000Z,30.4
2019-02-20T10:41:49.000Z,30.4
2019-02-20T10:43:49.000Z,30.5
2019-02-20T10:44:49.000Z,30.5
2019-02-20T10:45:49.000Z,30.6
2019-02-20T10:47:49.000Z,30.8
2019-02-20T10:49:49.000Z,30.8
2019-02-20T10:50:49.000Z,30.8
2019-02-20T10:51:49.000Z,30.8
2019-02-20T10:53:49.000Z,30.8
2019-02-20T10:54:49.000Z,30.8
2019-02-20T10:56:49.000Z,30.7
2019-02-20T10:58:49.000Z,30.8
2019-02-20T10:59:49.000Z,30.9
2019-02-20T11:00:49.000Z,31
2019-02-20T11:01:49.000Z,31.1
2019-02-20T11:03:49.000Z,31.4
2019-02-20T11:05:50.000Z,31.6
2019-02-20T11:06:50.000Z,31.7
2019-02-20T11:08:50.000Z,31.9
2019-02-20T11:10:35.000Z,32.1
2019-02-20T11:11:50.000Z,32.3
2019-02-20T11:12:50.000Z,32.5
2019-02-20T11:14:50.000Z,33
2019-02-20T11:15:50.000Z,33.2
2019-02-20T11:17:35.000Z,33.5
2019-02-20T11:19:50.000Z,33.5
2019-02-20T11:20:50.000Z,33.5
2019-02-20T11:22:50.000Z,33.8
2019-02-20T11:24:50.000Z,34.2
2019-02-20T11:25:50.000Z,34.4
2019-02-20T11:27:50.000Z,34.9
2019-02-20T11:28:50.000Z,34.9
2019-02-20T11:29:50.000Z,34.6
2019-02-20T11:31:35.000Z,33.9
2019-02-20T11:32:35.000Z,33.4
2019-02-20T11:34:50.000Z,32.6
2019-02-20T11:36:50.000Z,32
2019-02-20T11:37:50.000Z,31.8
2019-02-20T11:38:50.000Z,31.7
2019-02-20T11:40:35.000Z,31.5
2019-02-20T11:41:50.000Z,31.3
2019-02-20T11:42:50.000Z,31.2
2019-02-20T11:43:50.000Z,31.2
2019-02-20T11:45:50.000Z,31
2019-02-20T11:47:50.000Z,30.8
2019-02-20T11:49:50.000Z,30.7
2019-02-20T11:51:50.000Z,30.4
2019-02-20T11:53:37.000Z,30.3
2019-02-20T11:54:50.000Z,30.2
2019-02-20T11:55:50.000Z,30.2
2019-02-20T11:57:50.000Z,30.2
2019-02-20T11:58:50.000Z,30.2
2019-02-20T12:00:50.000Z,30.2
2019-02-20T12:02:35.000Z,30.1
2019-02-20T12:03:50.000Z,30
2019-02-20T12:04:50.000Z,30
2019-02-20T12:05:50.000Z,30
2019-02-20T12:07:50.000Z,30
2019-02-20T12:09:50.000Z,30
2019-02-20T12:11:50.000Z,29.9
2019-02-20T12:12:50.000Z,29.9
2019-02-20T12:14:50.000Z,29.9
2019-02-20T12:16:50.000Z,29.9
2019-02-20T12:17:50.000Z,29.9
2019-02-20T12:19:50.000Z,29.9
2019-02-20T12:21:50.000Z,29.9
2019-02-20T12:23:35.000Z,29.9
2019-02-20T12:24:50.000Z,29.8
2019-02-20T12:26:50.000Z,29.7
2019-02-20T12:27:50.000Z,29.7
2019-02-20T12:29:50.000Z,29.7
2019-02-20T12:31:34.000Z,29.8
2019-02-20T12:32:50.000Z,29.7
2019-02-20T12:33:50.000Z,29.7
2019-02-20T12:35:50.000Z,29.7
2019-02-20T12:36:50.000Z,29.8
2019-02-20T12:38:35.000Z,29.8
2019-02-20T12:39:50.000Z,29.6
2019-02-20T12:40:50.000Z,29.6
2019-02-20T12:42:50.000Z,29.6
2019-02-20T12:44:34.000Z,29.6
2019-02-20T12:45:50.000Z,29.6
2019-02-20T12:47:50.000Z,29.6
2019-02-20T12:49:50.000Z,29.7
2019-02-20T12:51:50.000Z,29.6
2019-02-20T12:52:50.000Z,29.5
2019-02-20T12:54:50.000Z,29.5
2019-02-20T12:55:50.000Z,29.6
2019-02-20T12:57:50.000Z,29.6
2019-02-20T12:58:50.000Z,29.6
2019-02-20T13:00:50.000Z,29.5
2019-02-20T13:01:50.000Z,29.5
2019-02-20T13:03:50.000Z,29.5
2019-02-20T13:05:34.000Z,29.5
2019-02-20T13:06:50.000Z,29.5
2019-02-20T13:08:34.000Z,29.4
2019-02-20T13:09:50.000Z,29.3
2019-02-20T13:11:50.000Z,29.4
2019-02-20T13:54:35.000Z,27.6
2019-02-20T13:55:35.000Z,27.8
2019-02-20T13:57:35.000Z,28.2
2019-02-20T13:59:35.000Z,28.5
2019-02-20T14:00:35.000Z,28.7
2019-02-20T14:02:35.000Z,28.9
2019-02-20T14:04:20.000Z,29
2019-02-20T14:05:35.000Z,29.1
2019-02-20T14:07:35.000Z,29.2
2019-02-20T14:08:35.000Z,29.2
2019-02-20T14:09:35.000Z,29.3
2019-02-20T14:11:35.000Z,29.5
2019-02-20T14:13:35.000Z,29.5
2019-02-20T14:14:35.000Z,29.5
2019-02-20T14:16:35.000Z,29.6
2019-02-20T14:18:20.000Z,29.7
2019-02-20T14:19:35.000Z,29.7
2019-02-20T14:20:35.000Z,29.8
2019-02-20T14:22:35.000Z,29.9
2019-02-20T14:23:35.000Z,29.9
2019-02-20T14:25:20.000Z,29.9
2019-02-20T14:26:35.000Z,29.8
2019-02-20T14:27:35.000Z,29.9
2019-02-20T14:29:20.000Z,29.9
2019-02-20T14:30:35.000Z,29.7
2019-02-20T14:32:35.000Z,29.5
2019-02-20T14:34:35.000Z,29.5
2019-02-20T14:35:35.000Z,29.5
2019-02-20T14:37:35.000Z,29.6
2019-02-20T14:38:35.000Z,29.6
2019-02-20T14:40:35.000Z,29.6
2019-02-20T14:42:35.000Z,29.6
2019-02-20T14:44:20.000Z,29.5
2019-02-20T14:45:35.000Z,29.4
2019-02-20T14:47:35.000Z,29.2
2019-02-20T14:49:35.000Z,29.1
2019-02-20T14:51:20.000Z,29.2
2019-02-20T14:52:35.000Z,29.1
2019-02-20T14:54:35.000Z,29.2
2019-02-20T14:56:20.000Z,29.3
2019-02-20T14:57:35.000Z,29.4
2019-02-20T14:59:20.000Z,29.5
2019-02-20T15:00:35.000Z,29.4
2019-02-20T15:01:35.000Z,29.4
2019-02-20T15:02:35.000Z,29.5
2019-02-20T15:04:20.000Z,29.8
2019-02-20T15:05:35.000Z,29.9
2019-02-20T15:07:35.000Z,30
2019-02-20T15:08:35.000Z,30.1
2019-02-20T15:10:35.000Z,30.2
2019-02-20T15:12:35.000Z,30.2
2019-02-20T15:14:20.000Z,30.3
2019-02-20T15:15:35.000Z,30.2
2019-02-20T15:16:35.000Z,30.3
2019-02-20T15:18:35.000Z,30.3
2019-02-20T15:20:35.000Z,30.4
2019-02-20T15:21:35.000Z,30.5
2019-02-20T15:23:35.000Z,30.5
2019-02-20T15:25:19.000Z,30.4
2019-02-20T15:26:35.000Z,30.4
2019-02-20T15:28:35.000Z,30.4
2019-02-20T15:30:35.000Z,30.3
2019-02-20T15:32:35.000Z,30.3
2019-02-20T15:33:35.000Z,30.3
2019-02-20T15:35:35.000Z,30.4
2019-02-20T15:37:20.000Z,30.4
2019-02-20T15:38:35.000Z,30.2
2019-02-20T15:39:35.000Z,30.2
2019-02-20T15:40:35.000Z,30.2
2019-02-20T15:42:35.000Z,30.3
2019-02-20T15:44:20.000Z,30.3
2019-02-20T15:45:35.000Z,30.2
2019-02-20T15:46:35.000Z,30.1
2019-02-20T15:48:20.000Z,30
2019-02-20T15:49:35.000Z,29.9
2019-02-20T15:50:35.000Z,29.9
2019-02-20T15:52:20.000Z,29.9
2019-02-20T15:53:35.000Z,29.8
2019-02-20T15:54:35.000Z,29.8
2019-02-20T15:56:35.000Z,29.7
2019-02-20T15:58:35.000Z,29.6
2019-02-20T16:00:19.000Z,29.6
2019-02-20T16:01:35.000Z,29.5
2019-02-20T16:03:35.000Z,29.5
2019-02-20T16:05:35.000Z,29.4
2019-02-20T16:06:35.000Z,29.4
2019-02-20T16:08:35.000Z,29.3
2019-02-20T16:09:35.000Z,29.4
2019-02-20T16:11:35.000Z,29.4
2019-02-20T16:13:35.000Z,29.5
2019-02-20T16:15:35.000Z,29.4
2019-02-20T16:16:35.000Z,29.4
2019-02-20T16:18:35.000Z,29.4
2019-02-20T16:20:35.000Z,29.4
2019-02-20T16:21:35.000Z,29.4
2019-02-20T16:23:35.000Z,29.5
2019-02-20T16:24:35.000Z,29.5
2019-02-20T16:26:20.000Z,29.6
2019-02-20T16:27:35.000Z,29.6
2019-02-20T16:28:35.000Z,29.6
2019-02-20T16:30:35.000Z,29.7
2019-02-20T16:32:35.000Z,29.7
2019-02-20T16:33:35.000Z,29.7
2019-02-20T16:34:35.000Z,29.7
2019-02-20T16:35:35.000Z,29.7
2019-02-20T16:37:20.000Z,29.7
2019-02-20T16:38:35.000Z,29.5
2019-02-20T16:39:35.000Z,29.5
2019-02-20T16:41:35.000Z,29.4
2019-02-20T16:42:35.000Z,29.5
2019-02-20T16:44:35.000Z,29.5
2019-02-20T16:45:35.000Z,29.5
2019-02-20T16:46:35.000Z,29.6
2019-02-20T16:48:35.000Z,29.5
2019-02-20T16:50:35.000Z,29.3
2019-02-20T16:52:20.000Z,29.2
2019-02-20T16:53:35.000Z,29.1
2019-02-20T16:54:35.000Z,29.1
2019-02-20T16:56:35.000Z,29
2019-02-20T16:57:35.000Z,29
2019-02-20T16:59:35.000Z,29
2019-02-20T17:01:20.000Z,29
2019-02-20T17:02:35.000Z,29
2019-02-20T17:03:35.000Z,29
2019-02-20T17:05:35.000Z,29
2019-02-20T17:07:20.000Z,29
2019-02-20T17:08:35.000Z,28.9
2019-02-20T17:09:35.000Z,28.9
2019-02-20T17:11:35.000Z,28.9
2019-02-20T17:13:35.000Z,28.9
2019-02-20T17:15:20.000Z,28.9
2019-02-20T17:16:35.000Z,28.8
2019-02-20T17:18:35.000Z,28.7
2019-02-20T17:20:35.000Z,28.7
2019-02-20T17:21:35.000Z,28.7
2019-02-20T17:23:20.000Z,28.8
2019-02-20T17:24:35.000Z,28.9
2019-02-20T17:26:35.000Z,28.8
2019-02-20T17:27:35.000Z,28.8
2019-02-20T17:29:35.000Z,28.8
2019-02-20T17:31:20.000Z,28.8
2019-02-20T17:32:35.000Z,28.7
2019-02-20T17:34:35.000Z,28.6
2019-02-20T17:36:35.000Z,28.5
2019-02-20T17:38:20.000Z,28.5
2019-02-20T17:39:35.000Z,28.4
2019-02-20T17:40:35.000Z,28.4
2019-02-20T17:42:35.000Z,28.6
2019-02-20T17:44:35.000Z,28.6
2019-02-20T17:46:20.000Z,28.6
2019-02-20T17:47:35.000Z,28.6
2019-02-20T17:49:35.000Z,28.6
2019-02-20T17:51:35.000Z,28.5
2019-02-20T17:53:20.000Z,28.6
2019-02-20T17:54:35.000Z,28.5
2019-02-20T17:55:35.000Z,28.5
2019-02-20T17:57:35.000Z,28.6
2019-02-20T17:59:35.000Z,28.6
2019-02-20T18:00:35.000Z,28.6
2019-02-20T18:02:35.000Z,28.6
2019-02-20T18:04:35.000Z,28.7
2019-02-20T18:05:35.000Z,28.7
2019-02-20T18:06:35.000Z,28.8
2019-02-20T18:08:20.000Z,28.9
2019-02-20T18:09:35.000Z,28.9
2019-02-20T18:11:20.000Z,29
2019-02-20T18:12:35.000Z,29
2019-02-20T18:13:35.000Z,29
2019-02-20T18:14:35.000Z,29
2019-02-20T18:15:35.000Z,29.1
2019-02-20T18:17:20.000Z,29.1
2019-02-20T18:18:35.000Z,29.1
2019-02-20T18:20:35.000Z,29.1
2019-02-20T18:21:35.000Z,29.1
2019-02-20T18:23:35.000Z,29.1
2019-02-20T18:25:35.000Z,29.1
2019-02-20T18:26:35.000Z,29.1
2019-02-20T18:28:20.000Z,29.1
2019-02-20T18:29:35.000Z,29
2019-02-20T18:30:35.000Z,29
2019-02-20T18:31:35.000Z,29
2019-02-20T18:33:35.000Z,29
2019-02-20T18:35:35.000Z,29
2019-02-20T18:37:20.000Z,29
2019-02-20T18:38:35.000Z,28.8
2019-02-20T18:39:35.000Z,28.8
2019-02-20T18:41:35.000Z,28.8
2019-02-20T18:43:35.000Z,28.8
2019-02-20T18:45:35.000Z,28.7
2019-02-20T18:47:35.000Z,28.6
2019-02-20T18:49:20.000Z,28.6
2019-02-20T18:50:35.000Z,28.6
2019-02-20T18:51:35.000Z,28.6
2019-02-20T18:53:35.000Z,28.7
2019-02-20T18:55:35.000Z,28.7
2019-02-20T18:57:35.000Z,28.6
2019-02-20T18:58:35.000Z,28.6
2019-02-20T18:59:35.000Z,28.7
2019-02-20T19:01:35.000Z,28.7
2019-02-20T19:03:35.000Z,28.8
2019-02-20T19:05:20.000Z,28.8
2019-02-20T19:06:35.000Z,28.8
2019-02-20T19:08:35.000Z,28.8
2019-02-20T19:10:35.000Z,28.7
2019-02-20T19:11:35.000Z,28.6
2019-02-20T19:12:35.000Z,28.7
2019-02-20T19:14:35.000Z,28.8
2019-02-20T19:16:35.000Z,28.7
2019-02-20T19:18:35.000Z,28.6
2019-02-20T19:20:35.000Z,28.6
2019-02-20T19:21:35.000Z,28.5
2019-02-20T19:22:35.000Z,28.6
2019-02-20T19:24:35.000Z,28.6
2019-02-20T19:25:35.000Z,28.6
2019-02-20T19:26:35.000Z,28.7
2019-02-20T19:28:35.000Z,28.7
2019-02-20T19:30:35.000Z,28.6
2019-02-20T19:31:35.000Z,28.6
2019-02-20T19:33:35.000Z,28.5
2019-02-20T19:34:35.000Z,28.5
2019-02-20T19:36:35.000Z,28.5
2019-02-20T19:37:35.000Z,28.5
2019-02-20T19:39:35.000Z,28.5
2019-02-20T19:40:35.000Z,28.6
2019-02-20T19:42:35.000Z,28.6
2019-02-20T19:44:20.000Z,28.7
2019-02-20T19:45:35.000Z,28.6
2019-02-20T19:47:35.000Z,28.6
2019-02-20T19:49:35.000Z,28.5
2019-02-20T19:50:35.000Z,28.5
2019-02-20T19:52:35.000Z,28.4
2019-02-20T19:54:35.000Z,28.4
2019-02-20T19:55:35.000Z,28.4
2019-02-20T19:57:35.000Z,28.3
2019-02-20T19:59:20.000Z,28.4
2019-02-20T20:00:35.000Z,28.4
2019-02-20T20:01:35.000Z,28.4
2019-02-20T20:03:35.000Z,28.4
2019-02-20T20:04:35.000Z,28.4
2019-02-20T20:06:35.000Z,28.4
2019-02-20T20:07:35.000Z,28.4
2019-02-20T20:09:35.000Z,28.3
2019-02-20T20:11:35.000Z,28.2
2019-02-20T20:13:35.000Z,28.1
2019-02-20T20:15:35.000Z,28.1
2019-02-20T20:16:35.000Z,28.2
2019-02-20T20:18:20.000Z,28.3
2019-02-20T20:19:35.000Z,28.3
2019-02-20T20:20:35.000Z,28.3
2019-02-20T20:22:35.000Z,28.4
2019-02-20T20:24:20.000Z,28.4
2019-02-20T20:25:35.000Z,28.3
2019-02-20T20:26:35.000Z,28.3
2019-02-20T20:28:20.000Z,28.3
2019-02-20T20:29:35.000Z,28.3
2019-02-20T20:30:35.000Z,28.4
2019-02-20T20:32:35.000Z,28.4
2019-02-20T20:33:35.000Z,28.4
2019-02-20T20:35:35.000Z,28.4
2019-02-20T20:37:35.000Z,28.3
2019-02-20T20:38:35.000Z,28.3
2019-02-20T20:40:20.000Z,28.4
2019-02-20T20:41:35.000Z,28.4
2019-02-20T20:42:35.000Z,28.4
2019-02-20T20:44:20.000Z,28.4
2019-02-20T20:45:35.000Z,28.3
2019-02-20T20:46:35.000Z,28.3
2019-02-20T20:47:35.000Z,28.3
2019-02-20T20:48:35.000Z,28.4
2019-02-20T20:50:35.000Z,28.5
2019-02-20T20:52:35.000Z,28.5
2019-02-20T20:54:35.000Z,28.5
2019-02-20T20:56:35.000Z,28.5
2019-02-20T20:58:35.000Z,28.4
2019-02-20T20:59:35.000Z,28.4
2019-02-20T21:00:35.000Z,28.5
2019-02-20T21:02:35.000Z,28.5
2019-02-20T21:04:35.000Z,28.5
2019-02-20T21:06:35.000Z,28.5
2019-02-20T21:08:35.000Z,28.5
2019-02-20T21:09:35.000Z,28.5
2019-02-20T21:10:35.000Z,28.5
2019-02-20T21:11:35.000Z,28.5
2019-02-20T21:13:20.000Z,28.6
2019-02-20T21:14:35.000Z,28.5
2019-02-20T21:15:35.000Z,28.5
2019-02-20T21:16:35.000Z,28.6
2019-02-20T21:18:20.000Z,28.7
2019-02-20T21:19:20.000Z,28.6
2019-02-20T21:20:35.000Z,28.5
2019-02-20T21:21:35.000Z,28.4
2019-02-20T21:22:35.000Z,28.5
2019-02-20T21:23:35.000Z,28.5
2019-02-20T21:25:35.000Z,28.5
2019-02-20T21:27:35.000Z,28.5
2019-02-20T21:29:20.000Z,28.4
2019-02-20T21:30:35.000Z,28.3